createdAt,value
2023-03-16T00:00:29.474Z,-1.0625
2023-03-16T00:05:29.829Z,-0.9375
2023-03-16T00:10:30.661Z,-1
2023-03-16T00:15:31.460Z,-0.875
2023-03-16T00:20:32.635Z,-0.75
2023-03-16T00:25:35.860Z,-0.875
2023-03-16T00:30:37.103Z,-1.25
2023-03-16T00:35:38.176Z,-0.9375
2023-03-16T00:40:39.148Z,-1.1875
2023-03-16T00:45:40.238Z,-0.875
2023-03-16T00:50:41.295Z,-0.875
2023-03-16T00:55:42.170Z,-0.5625
2023-03-16T01:00:43.232Z,-0.5625
2023-03-16T01:05:44.067Z,-0.5
2023-03-16T01:10:44.981Z,-0.6875
2023-03-16T01:15:45.933Z,-0.6875
2023-03-16T01:20:46.937Z,-0.6875
2023-03-16T01:25:48.130Z,-0.8125
2023-03-16T01:30:49.147Z,-0.875
2023-03-16T01:35:50.173Z,-1.0625
2023-03-16T01:40:50.957Z,-0.9375
2023-03-16T01:45:52.120Z,-1.125
2023-03-16T01:50:53.150Z,-0.8125
2023-03-16T01:55:53.958Z,-0.5
2023-03-16T02:00:55.069Z,-0.5625
2023-03-16T02:05:56.084Z,-1.0625
2023-03-16T02:10:56.974Z,-0.6875
2023-03-16T02:15:58.096Z,-0.625
2023-03-16T02:20:59.024Z,-0.625
2023-03-16T02:26:00.133Z,-0.6875
2023-03-16T02:31:01.035Z,-0.8125
2023-03-16T02:36:02.003Z,-0.75
2023-03-16T02:41:02.945Z,-0.75
2023-03-16T02:46:03.940Z,-0.75
2023-03-16T02:51:04.932Z,-0.75
2023-03-16T02:56:05.775Z,-0.8125
2023-03-16T03:01:06.668Z,-0.75
2023-03-16T03:06:07.776Z,-0.75
2023-03-16T03:11:08.765Z,-0.8125
2023-03-16T03:16:09.760Z,-0.9375
2023-03-16T03:21:10.690Z,-0.9375
2023-03-16T03:26:11.510Z,-0.9375
2023-03-16T03:31:12.639Z,-0.9375
2023-03-16T03:36:13.839Z,-1
2023-03-16T03:41:14.738Z,-1
2023-03-16T03:46:15.933Z,-1.125
2023-03-16T03:51:16.699Z,-1.3125
2023-03-16T03:56:17.574Z,-1.25
2023-03-16T04:01:18.660Z,-1.3125
2023-03-16T04:06:19.508Z,-1.3125
2023-03-16T04:11:20.480Z,-1.375
2023-03-16T04:16:21.825Z,-1.375
2023-03-16T04:21:22.885Z,-1.625
2023-03-16T04:26:23.738Z,-1.75
2023-03-16T04:31:24.677Z,-1.6875
2023-03-16T04:36:25.553Z,-1.5
2023-03-16T04:41:26.514Z,-1.625
2023-03-16T04:46:27.483Z,-1.5625
2023-03-16T04:51:28.384Z,-1.6875
2023-03-16T04:56:29.325Z,-1.75
2023-03-16T05:01:30.518Z,-1.9375
2023-03-16T05:06:31.369Z,-1.8125
2023-03-16T05:11:32.133Z,-1.5625
2023-03-16T05:16:33.181Z,-1.6875
2023-03-16T05:21:34.344Z,-1.5625
2023-03-16T05:26:35.203Z,-1.75
2023-03-16T05:31:36.262Z,-1.8125
2023-03-16T05:36:37.004Z,-1.75
2023-03-16T05:41:38.018Z,-1.5
2023-03-16T05:46:39.220Z,-1.6875
2023-03-16T05:51:39.974Z,-1.5625
2023-03-16T05:56:41.022Z,-1.625
2023-03-16T06:01:42.035Z,-1.75
2023-03-16T06:06:43.043Z,-1.6875
2023-03-16T06:11:44.198Z,-1.5625
2023-03-16T06:16:45.127Z,-1.4375
2023-03-16T06:21:46.058Z,-1.625
2023-03-16T06:26:47.105Z,-1.375
2023-03-16T06:31:48.139Z,-1
2023-03-16T06:36:49.174Z,-0.8125
2023-03-16T06:41:50.219Z,-0.6875
2023-03-16T06:46:51.214Z,-0.5625
2023-03-16T06:51:52.296Z,-0.3125
2023-03-16T06:56:53.034Z,-0.125
2023-03-16T07:01:53.924Z,0.0625
2023-03-16T07:06:54.810Z,0.1875
2023-03-16T07:11:55.956Z,0.625
2023-03-16T07:16:56.942Z,2.0625
2023-03-16T07:21:57.914Z,10.875
2023-03-16T07:26:59.112Z,12.375
2023-03-16T07:32:00.313Z,13.0625
2023-03-16T07:37:01.177Z,14.9375
2023-03-16T07:42:01.994Z,15.5625
2023-03-16T07:47:03.090Z,15.75
2023-03-16T07:52:04.058Z,16.8125
2023-03-16T07:57:04.982Z,16.5625
2023-03-16T08:02:06.462Z,15.25
2023-03-16T08:07:07.021Z,16.4375
2023-03-16T08:12:07.965Z,16.6875
2023-03-16T08:17:09.074Z,17.125
2023-03-16T08:22:09.989Z,17
2023-03-16T08:27:11.056Z,16.3125
2023-03-16T08:32:12.041Z,14.875
2023-03-16T08:37:13.070Z,10.8125
2023-03-16T08:42:13.999Z,9.3125
2023-03-16T08:47:14.935Z,9.3125
2023-03-16T08:52:15.771Z,8.6875
2023-03-16T08:57:16.777Z,8.125
2023-03-16T09:02:17.651Z,7.25
2023-03-16T09:07:18.485Z,7.75
2023-03-16T09:12:19.287Z,7.5625
2023-03-16T09:17:20.249Z,7.125
2023-03-16T09:22:21.205Z,7.4375
2023-03-16T09:27:22.147Z,7.5625
2023-03-16T09:32:22.942Z,6.9375
2023-03-16T09:37:24.364Z,7.5
2023-03-16T09:42:24.844Z,6.8125
2023-03-16T09:47:25.485Z,6.9375
2023-03-16T09:52:26.544Z,7.5625
2023-03-16T09:57:27.423Z,7.4375
2023-03-16T10:02:28.521Z,7.6875
2023-03-16T10:07:29.571Z,7.25
2023-03-16T10:12:30.424Z,7.5625
2023-03-16T10:17:31.393Z,7.625
2023-03-16T10:22:32.226Z,8
2023-03-16T10:27:33.080Z,7.9375
2023-03-16T10:32:34.127Z,7.6875
2023-03-16T10:37:34.857Z,7.5625
2023-03-16T10:42:35.916Z,8.3125
2023-03-16T10:47:36.968Z,7.3125
2023-03-16T10:52:38.124Z,7.5
2023-03-16T10:57:39.248Z,8
2023-03-16T11:02:40.287Z,8
2023-03-16T11:07:41.010Z,8.625
2023-03-16T11:12:42.070Z,8.1875
2023-03-16T11:17:42.939Z,8.3125
2023-03-16T11:22:43.821Z,8.25
2023-03-16T11:27:44.734Z,8.5625
2023-03-16T11:32:45.700Z,8.375
2023-03-16T11:37:46.515Z,8.5
2023-03-16T11:42:47.386Z,9.1875
2023-03-16T11:47:48.352Z,8.125
2023-03-16T11:52:49.200Z,8.3125
2023-03-16T11:57:51.664Z,8.625
2023-03-16T12:02:51.179Z,8.375
2023-03-16T12:07:51.818Z,8.6875
2023-03-16T12:12:52.676Z,8.6875
2023-03-16T12:17:53.884Z,8.3125
2023-03-16T12:22:54.875Z,8.5
2023-03-16T12:27:55.963Z,8.5625
2023-03-16T12:32:56.981Z,8.5625
2023-03-16T12:37:58.157Z,8.75
2023-03-16T12:42:58.660Z,8.3125
2023-03-16T12:47:59.675Z,8.4375
2023-03-16T12:53:00.754Z,8.3125
2023-03-16T12:58:01.572Z,8.8125
2023-03-16T13:03:02.407Z,8.625
2023-03-16T13:08:03.405Z,8.75
2023-03-16T13:13:04.411Z,8.625
2023-03-16T13:18:05.462Z,9.375
2023-03-16T13:23:06.389Z,9.5
2023-03-16T13:28:07.293Z,8.8125
2023-03-16T13:33:08.477Z,8.875
2023-03-16T13:38:10.168Z,9.375
2023-03-16T13:43:10.799Z,9.25
2023-03-16T13:48:11.590Z,9.25
2023-03-16T13:53:12.466Z,9.3125
2023-03-16T13:58:13.473Z,9.625
2023-03-16T14:03:14.583Z,9.5625
2023-03-16T14:08:15.407Z,9.9375
2023-03-16T14:13:16.279Z,10
2023-03-16T14:18:17.209Z,9.5
2023-03-16T14:23:18.186Z,9.8125
2023-03-16T14:28:19.287Z,9.3125
2023-03-16T14:33:20.136Z,9.25
2023-03-16T14:38:21.327Z,9
2023-03-16T14:43:22.137Z,8.8125
2023-03-16T14:48:23.196Z,9.1875
2023-03-16T14:53:24.140Z,9.25
2023-03-16T14:58:25.067Z,9
2023-03-16T15:03:26.070Z,9.4375
2023-03-16T15:08:26.982Z,9.4375
2023-03-16T15:13:28.036Z,8.625
2023-03-16T15:18:28.956Z,8.25
2023-03-16T15:23:29.913Z,8.4375
2023-03-16T15:28:31.075Z,8.3125
2023-03-16T15:33:32.169Z,8.0625
2023-03-16T15:38:32.980Z,8.125
2023-03-16T15:43:33.770Z,8.1875
2023-03-16T15:48:34.928Z,8.0625
2023-03-16T15:53:36.087Z,7.875
2023-03-16T15:58:36.622Z,7.875
2023-03-16T16:03:37.474Z,7.8125
2023-03-16T16:08:38.264Z,7.8125
2023-03-16T16:13:44.499Z,7.5625
2023-03-16T16:18:40.347Z,7.375
2023-03-16T16:23:41.231Z,7.3125
2023-03-16T16:28:42.272Z,7.375
2023-03-16T16:33:43.199Z,7.125
2023-03-16T16:38:44.156Z,7.0625
2023-03-16T16:43:45.014Z,6.6875
2023-03-16T16:48:45.944Z,6.75
2023-03-16T16:53:46.760Z,6.75
2023-03-16T16:58:47.759Z,6.75
2023-03-16T17:03:48.764Z,6.5625
2023-03-16T17:08:49.790Z,6.5
2023-03-16T17:13:50.861Z,6.375
2023-03-16T17:18:52.019Z,6.3125
2023-03-16T17:23:53.065Z,6.0625
2023-03-16T17:28:54.072Z,6
2023-03-16T17:33:55.748Z,6.125
2023-03-16T17:38:56.210Z,6
2023-03-16T17:43:57.219Z,6
2023-03-16T17:48:58.365Z,5.9375
2023-03-16T17:53:59.048Z,5.75
2023-03-16T17:59:00.278Z,5.9375
2023-03-16T18:04:01.210Z,5.875
2023-03-16T18:09:02.049Z,5.8125
2023-03-16T18:14:03.074Z,5.8125
2023-03-16T18:19:04.020Z,5.875
2023-03-16T18:24:05.051Z,5.875
2023-03-16T18:29:05.867Z,6.125
2023-03-16T18:34:06.905Z,6.25
2023-03-16T18:39:07.855Z,6.3125
2023-03-16T18:44:08.558Z,6.25
2023-03-16T18:49:09.704Z,6.25
2023-03-16T18:54:10.516Z,6.25
2023-03-16T18:59:11.367Z,6.25
2023-03-16T19:04:12.604Z,6.25
2023-03-16T19:09:13.461Z,5.5625
2023-03-16T19:14:14.422Z,6.125
2023-03-16T19:19:15.612Z,5.8125
2023-03-16T19:24:16.348Z,5.9375
2023-03-16T19:29:17.241Z,5.75
2023-03-16T19:34:18.087Z,5.75
2023-03-16T19:39:18.976Z,5.875
2023-03-16T19:44:20.072Z,5.875
2023-03-16T19:49:21.125Z,5.9375
2023-03-16T19:54:21.999Z,5.9375
2023-03-16T19:59:23.047Z,5.875
2023-03-16T20:04:24.404Z,5.8125
2023-03-16T20:09:25.322Z,5.9375
2023-03-16T20:14:26.378Z,5.875
2023-03-16T20:19:27.553Z,5.0625
2023-03-16T20:24:28.510Z,5.9375
2023-03-16T20:29:29.724Z,5.8125
2023-03-16T20:34:30.608Z,5.9375
2023-03-16T20:39:31.715Z,5.875
2023-03-16T20:44:32.422Z,5.75
2023-03-16T20:49:33.309Z,5.8125
2023-03-16T20:54:34.019Z,5.75
2023-03-16T20:59:34.964Z,5.875
2023-03-16T21:04:36.169Z,5.8125
2023-03-16T21:09:37.205Z,5.75
2023-03-16T21:14:38.271Z,5.75
2023-03-16T21:19:39.001Z,5.6875
2023-03-16T21:24:39.961Z,5.4375
2023-03-16T21:29:40.960Z,5.5
2023-03-16T21:34:42.067Z,5.4375
2023-03-16T21:39:43.223Z,5.375
2023-03-16T21:44:44.215Z,5.1875
2023-03-16T21:49:45.035Z,5.1875
2023-03-16T21:54:45.919Z,5.0625
2023-03-16T21:59:46.909Z,5.125
2023-03-16T22:04:48.222Z,5.125
2023-03-16T22:09:48.799Z,5.1875
2023-03-16T22:14:49.722Z,5.1875
2023-03-16T22:19:50.674Z,5.125
2023-03-16T22:24:51.481Z,5.0625
2023-03-16T22:29:52.248Z,5
2023-03-16T22:34:53.426Z,5
2023-03-16T22:39:54.522Z,4.9375
2023-03-16T22:44:55.265Z,5
2023-03-16T22:49:56.668Z,4.9375
2023-03-16T22:54:57.702Z,4.75
2023-03-16T22:59:58.592Z,4.75
2023-03-16T23:04:59.584Z,4.8125
2023-03-16T23:10:00.267Z,4.75
2023-03-16T23:15:01.154Z,4.6875
2023-03-16T23:20:02.103Z,4.5
2023-03-16T23:25:03.270Z,4.3125
2023-03-16T23:30:03.785Z,4.25
2023-03-16T23:35:04.791Z,4.0625
2023-03-16T23:40:06.053Z,4
2023-03-16T23:45:06.660Z,4
2023-03-16T23:50:07.791Z,3.9375
2023-03-16T23:55:08.834Z,3.875
